Time;durP1;ratioP1;P1;durP2;ratioP2;P2;SDS_P1;SDS_P2;PMS_P1;PMS_P2;Temp;Humidity;BMP_temperature;BMP_pressure;BME280_temperature;BME280_humidity;BME280_pressure;Samples;Min_cycle;Max_cycle;Signal;HPM_P1;HPM_P2
2023/03/08 00:01:39;;;;;;;22.52;9.55;;;2.30;99.90;;;;;;5086697;28;20035;-86
2023/03/08 00:04:05;;;;;;;24.92;10.30;;;2.30;99.90;;;;;;5036552;28;20099;-86
2023/03/08 00:06:31;;;;;;;24.90;9.77;;;2.30;99.90;;;;;;5053447;28;20560;-86
2023/03/08 00:08:58;;;;;;;21.73;10.15;;;2.20;99.90;;;;;;5053300;28;20025;-85
2023/03/08 00:11:24;;;;;;;23.08;10.13;;;2.20;99.90;;;;;;5054659;28;20439;-86
2023/03/08 00:13:50;;;;;;;17.38;9.55;;;2.20;99.90;;;;;;5036806;28;20057;-86
2023/03/08 00:16:17;;;;;;;19.10;9.70;;;2.20;99.90;;;;;;5053391;28;20029;-86
2023/03/08 00:18:43;;;;;;;21.50;10.40;;;2.20;99.90;;;;;;5036365;28;20043;-86
2023/03/08 00:21:12;;;;;;;25.15;10.88;;;2.20;99.90;;;;;;5036551;28;20025;-85
2023/03/08 00:23:37;;;;;;;22.90;10.65;;;2.20;99.90;;;;;;5036614;28;20021;-86
2023/03/08 00:26:03;;;;;;;19.58;11.13;;;2.20;99.90;;;;;;5036555;28;20083;-86
2023/03/08 00:28:30;;;;;;;21.80;10.00;;;2.20;99.90;;;;;;5052810;28;20029;-86
2023/03/08 00:31:06;;;;;;;21.88;10.75;;;2.20;99.90;;;;;;5036205;28;20028;-85
2023/03/08 00:33:32;;;;;;;28.85;12.05;;;2.20;99.90;;;;;;5036221;28;20508;-85
2023/03/08 00:36:08;;;;;;;22.77;11.10;;;2.20;99.90;;;;;;5036508;28;20036;-85
2023/03/08 00:38:36;;;;;;;25.55;11.15;;;2.30;99.90;;;;;;5036522;28;20036;-86
2023/03/08 00:41:03;;;;;;;22.50;11.57;;;2.30;99.90;;;;;;5036470;28;20025;-86
2023/03/08 00:43:31;;;;;;;23.25;10.77;;;2.30;99.90;;;;;;5036574;28;20024;-85
2023/03/08 00:45:57;;;;;;;31.63;11.45;;;2.30;99.90;;;;;;5053091;28;20472;-86
2023/03/08 00:48:22;;;;;;;26.88;11.70;;;2.20;99.90;;;;;;5032853;28;20025;-86
2023/03/08 00:50:51;;;;;;;27.08;11.27;;;2.30;99.90;;;;;;5036322;28;20082;-86
2023/03/08 00:53:17;;;;;;;23.30;10.68;;;2.30;99.90;;;;;;5032728;28;20045;-85
2023/03/08 00:55:51;;;;;;;25.15;11.35;;;2.30;99.90;;;;;;5068830;28;20033;-86
2023/03/08 00:58:18;;;;;;;52.35;19.70;;;2.30;99.90;;;;;;5052810;28;20025;-86
2023/03/08 01:00:44;;;;;;;50.17;17.83;;;2.20;99.90;;;;;;5052516;28;20029;-86
2023/03/08 01:03:10;;;;;;;34.72;15.52;;;2.20;99.90;;;;;;5036043;28;20013;-85
2023/03/08 01:05:43;;;;;;;34.47;14.98;;;2.20;99.90;;;;;;5035581;28;20131;-86
2023/03/08 01:08:09;;;;;;;106.05;43.03;;;2.20;99.90;;;;;;5036379;28;20017;-85
2023/03/08 01:10:35;;;;;;;27.25;12.68;;;2.20;99.90;;;;;;5052318;28;20024;-85
2023/03/08 01:13:02;;;;;;;23.35;11.63;;;2.20;99.90;;;;;;5052194;28;20029;-86
2023/03/08 01:15:28;;;;;;;52.28;21.98;;;2.20;99.90;;;;;;5052694;28;20029;-86
2023/03/08 01:17:55;;;;;;;31.65;13.13;;;2.20;99.90;;;;;;5035765;28;20032;-86
2023/03/08 01:20:20;;;;;;;25.30;12.10;;;2.10;99.90;;;;;;5035968;28;20033;-86
2023/03/08 01:22:46;;;;;;;24.50;10.68;;;2.10;99.90;;;;;;5035493;28;20029;-85
2023/03/08 01:25:12;;;;;;;24.48;11.95;;;2.10;99.90;;;;;;5035576;28;20074;-86
2023/03/08 01:27:38;;;;;;;27.17;12.70;;;2.10;99.90;;;;;;5035889;28;20017;-86
2023/03/08 01:30:04;;;;;;;25.33;12.77;;;2.10;99.90;;;;;;5051867;28;20361;-85
2023/03/08 01:32:29;;;;;;;21.33;10.85;;;2.10;99.90;;;;;;5035642;28;20035;-86
2023/03/08 01:35:02;;;;;;;27.05;12.25;;;2.10;99.90;;;;;;5035890;28;20032;-86
2023/03/08 01:37:27;;;;;;;24.80;12.18;;;2.10;99.90;;;;;;5051636;28;20025;-86
2023/03/08 01:39:53;;;;;;;26.42;11.95;;;2.10;99.90;;;;;;5051760;28;20029;-86
2023/03/08 01:42:19;;;;;;;28.30;12.20;;;2.10;99.90;;;;;;5052183;28;20021;-87
2023/03/08 01:44:54;;;;;;;31.35;11.48;;;2.10;99.90;;;;;;5039300;28;20040;-86
2023/03/08 01:47:23;;;;;;;22.70;12.38;;;2.10;99.90;;;;;;5056285;28;20494;-86
2023/03/08 01:50:10;;;;;;;25.20;11.93;;;2.00;99.90;;;;;;5056472;28;20111;-85
2023/03/08 01:52:46;;;;;;;26.38;13.60;;;2.10;99.90;;;;;;5039447;28;20025;-86
2023/03/08 01:55:14;;;;;;;28.80;11.13;;;2.10;99.90;;;;;;5034210;28;20048;-86
2023/03/08 01:57:42;;;;;;;28.13;12.80;;;2.00;99.90;;;;;;5055857;28;20489;-86
2023/03/08 02:00:13;;;;;;;27.88;12.48;;;2.00;99.90;;;;;;5039342;28;20366;-86
2023/03/08 02:02:49;;;;;;;23.50;12.07;;;2.00;99.90;;;;;;5038198;28;20128;-86
2023/03/08 02:05:16;;;;;;;24.63;11.48;;;2.00;99.90;;;;;;5039674;28;20024;-86
2023/03/08 02:07:44;;;;;;;30.52;11.82;;;2.00;99.90;;;;;;5055442;28;20099;-86
2023/03/08 02:10:11;;;;;;;31.42;14.48;;;2.00;99.90;;;;;;5039285;28;20035;-85
2023/03/08 02:12:39;;;;;;;25.75;11.52;;;2.00;99.90;;;;;;5039081;28;20032;-86
2023/03/08 02:15:08;;;;;;;27.25;11.77;;;1.90;99.90;;;;;;5055644;28;20028;-85
2023/03/08 02:17:39;;;;;;;24.10;12.45;;;1.90;99.90;;;;;;5038928;28;20025;-85
2023/03/08 02:20:17;;;;;;;26.48;11.63;;;1.90;99.90;;;;;;5038999;28;20500;-85
2023/03/08 02:22:44;;;;;;;28.95;12.68;;;1.80;99.90;;;;;;5039096;28;20025;-87
2023/03/08 02:25:24;;;;;;;25.75;11.35;;;1.80;99.90;;;;;;5055050;28;20021;-86
2023/03/08 02:27:54;;;;;;;26.30;12.40;;;1.80;99.90;;;;;;5055220;28;20025;-86
2023/03/08 02:30:28;;;;;;;25.98;12.85;;;1.70;99.90;;;;;;5038799;28;20115;-85
2023/03/08 02:32:54;;;;;;;30.10;12.95;;;1.70;99.90;;;;;;5038776;28;20037;-86
2023/03/08 02:35:20;;;;;;;29.25;13.63;;;1.70;99.90;;;;;;5038582;28;20082;-86
2023/03/08 02:37:45;;;;;;;25.02;12.13;;;1.70;99.90;;;;;;5055347;28;20029;-86
2023/03/08 02:40:45;;;;;;;28.17;12.93;;;1.70;99.90;;;;;;5054798;28;20033;-86
2023/03/08 02:43:11;;;;;;;28.13;12.90;;;1.70;99.90;;;;;;5055086;28;20035;-86
2023/03/08 02:45:39;;;;;;;33.40;13.82;;;1.60;99.90;;;;;;5038750;28;20492;-86
2023/03/08 02:48:07;;;;;;;29.83;13.60;;;1.60;99.90;;;;;;5055067;28;20029;-86
2023/03/08 02:50:35;;;;;;;27.40;12.40;;;1.60;99.90;;;;;;5054843;28;20033;-86
2023/03/08 02:53:01;;;;;;;29.92;13.23;;;1.60;99.90;;;;;;5054872;28;20405;-85
2023/03/08 02:55:39;;;;;;;27.15;12.85;;;1.60;99.90;;;;;;5037567;28;20021;-86
2023/03/08 02:58:09;;;;;;;27.20;13.15;;;1.60;99.90;;;;;;5038453;28;20060;-86
2023/03/08 03:00:35;;;;;;;33.85;15.25;;;1.60;99.90;;;;;;5037824;28;20044;-86
2023/03/08 03:03:01;;;;;;;25.67;12.77;;;1.60;99.90;;;;;;5054768;28;20029;-86
2023/03/08 03:05:27;;;;;;;28.10;12.77;;;1.50;99.90;;;;;;5054210;28;20032;-85
2023/03/08 03:07:57;;;;;;;29.67;13.20;;;1.50;99.90;;;;;;5038222;28;20070;-86
2023/03/08 03:10:24;;;;;;;30.67;12.70;;;1.50;99.90;;;;;;5034540;28;20037;-86
2023/03/08 03:12:50;;;;;;;31.95;13.80;;;1.50;99.90;;;;;;5054022;28;20052;-86
2023/03/08 03:15:19;;;;;;;25.48;12.48;;;1.50;99.90;;;;;;5034468;28;20108;-86
2023/03/08 03:17:49;;;;;;;27.48;12.73;;;1.50;99.90;;;;;;5054095;28;20039;-86
2023/03/08 03:21:06;;;;;;;29.80;13.70;;;1.50;99.90;;;;;;5046062;28;20029;-86
2023/03/08 03:23:32;;;;;;;30.25;13.40;;;1.50;99.90;;;;;;5084274;28;20029;-85
2023/03/08 03:26:08;;;;;;;28.92;13.77;;;1.50;99.90;;;;;;5034369;28;20428;-85
2023/03/08 03:28:34;;;;;;;26.95;12.80;;;1.40;99.90;;;;;;5054083;28;20029;-86
2023/03/08 03:31:05;;;;;;;28.52;12.73;;;1.40;99.90;;;;;;5037578;28;20029;-86
2023/03/08 03:33:31;;;;;;;27.52;13.25;;;1.40;99.90;;;;;;5037426;28;20043;-85
2023/03/08 03:35:57;;;;;;;26.65;13.80;;;1.40;99.90;;;;;;5033924;28;20038;-86
2023/03/08 03:38:24;;;;;;;32.53;13.18;;;1.30;99.90;;;;;;5053966;28;20025;-86
2023/03/08 03:41:18;;;;;;;30.75;12.48;;;1.30;99.90;;;;;;5037445;28;20071;-86
2023/03/08 03:44:06;;;;;;;28.58;13.45;;;1.20;99.90;;;;;;5068846;28;20028;-86
2023/03/08 03:46:33;;;;;;;33.28;12.85;;;1.20;99.90;;;;;;5067568;28;20032;-86
2023/03/08 03:48:58;;;;;;;30.45;14.30;;;1.10;99.90;;;;;;5037091;28;20025;-85
2023/03/08 03:51:30;;;;;;;30.45;12.35;;;1.10;99.90;;;;;;5036241;28;20511;-86
2023/03/08 03:54:08;;;;;;;29.40;13.57;;;1.10;99.90;;;;;;5038590;28;20040;-85
2023/03/08 03:56:36;;;;;;;30.08;13.73;;;1.10;99.90;;;;;;5053210;28;20502;-85
2023/03/08 03:59:02;;;;;;;27.92;13.63;;;1.20;99.90;;;;;;5035359;28;20112;-86
2023/03/08 04:01:29;;;;;;;31.95;14.68;;;1.20;99.90;;;;;;5046064;28;20033;-86
2023/03/08 04:04:03;;;;;;;32.38;14.13;;;1.20;99.90;;;;;;5068439;28;20021;-86
2023/03/08 04:06:33;;;;;;;29.00;14.35;;;1.20;99.90;;;;;;5035947;28;20036;-86
2023/03/08 04:09:03;;;;;;;35.45;14.07;;;1.10;99.90;;;;;;5053019;28;20017;-86
2023/03/08 04:11:36;;;;;;;30.83;14.07;;;1.10;99.90;;;;;;5031948;28;20112;-86
2023/03/08 04:14:02;;;;;;;;;;;1.10;99.90;;;;;;5047440;28;20078;-86
2023/03/08 04:16:31;;;;;;;35.20;13.07;;;1.10;99.90;;;;;;5053004;28;19909;-86
2023/03/08 04:19:06;;;;;;;29.55;13.88;;;1.10;99.90;;;;;;5036771;28;20025;-86
2023/03/08 04:21:33;;;;;;;29.38;13.27;;;1.10;99.90;;;;;;5036493;28;20033;-86
2023/03/08 04:23:59;;;;;;;29.75;14.35;;;1.10;99.90;;;;;;5036074;28;20499;-86
2023/03/08 04:26:25;;;;;;;34.75;14.40;;;1.10;99.90;;;;;;5035946;28;20017;-85
2023/03/08 04:28:51;;;;;;;27.98;13.70;;;1.10;99.90;;;;;;5052291;28;20036;-86
2023/03/08 04:31:21;;;;;;;33.00;14.10;;;1.10;99.90;;;;;;5035854;28;20028;-86
2023/03/08 04:33:48;;;;;;;30.02;13.85;;;1.10;99.90;;;;;;5036092;28;20439;-86
2023/03/08 04:36:36;;;;;;;28.50;13.52;;;1.10;99.90;;;;;;5036493;28;20064;-86
2023/03/08 04:39:01;;;;;;;36.15;13.95;;;1.10;99.90;;;;;;5036176;28;20029;-86
2023/03/08 04:41:28;;;;;;;31.17;14.50;;;1.10;99.90;;;;;;5036026;28;20029;-86
2023/03/08 04:44:05;;;;;;;28.75;13.82;;;1.10;99.90;;;;;;5049595;28;20029;-86
2023/03/08 04:46:37;;;;;;;27.27;13.60;;;1.10;99.90;;;;;;5034501;28;20029;-86
2023/03/08 04:49:03;;;;;;;33.92;14.10;;;1.10;99.90;;;;;;5035825;28;20039;-86
2023/03/08 04:51:34;;;;;;;32.33;14.50;;;1.10;99.90;;;;;;5036721;28;20473;-86
2023/03/08 04:54:03;;;;;;;28.30;13.73;;;1.10;99.90;;;;;;5036576;28;20048;-86
2023/03/08 04:56:30;;;;;;;35.67;14.40;;;1.20;99.90;;;;;;5036172;28;20392;-85
2023/03/08 04:58:57;;;;;;;34.17;15.13;;;1.10;99.90;;;;;;5036040;28;20536;-86
2023/03/08 05:01:25;;;;;;;42.00;16.98;;;1.10;99.90;;;;;;5035746;28;20035;-86
2023/03/08 05:03:53;;;;;;;32.17;15.55;;;1.10;99.90;;;;;;5035759;28;20029;-86
2023/03/08 05:06:25;;;;;;;40.65;18.27;;;1.10;99.90;;;;;;5036400;28;20028;-86
2023/03/08 05:08:53;;;;;;;43.08;17.75;;;1.10;99.90;;;;;;5035921;28;20032;-86
2023/03/08 05:11:25;;;;;;;39.45;18.20;;;1.10;99.90;;;;;;5035901;28;20372;-86
2023/03/08 05:13:53;;;;;;;39.90;17.88;;;1.10;99.90;;;;;;5035821;28;20029;-86
2023/03/08 05:16:20;;;;;;;37.20;17.35;;;1.10;99.90;;;;;;5035821;28;20047;-86
2023/03/08 05:18:46;;;;;;;44.45;20.23;;;1.10;99.90;;;;;;5035035;28;20029;-85
2023/03/08 05:21:16;;;;;;;42.30;21.45;;;1.10;99.90;;;;;;5051909;28;20029;-86
2023/03/08 05:23:43;;;;;;;49.08;22.15;;;1.10;99.90;;;;;;5035687;28;20120;-86
2023/03/08 05:26:14;;;;;;;48.17;21.73;;;1.10;99.90;;;;;;5035729;28;20025;-86
2023/03/08 05:28:43;;;;;;;46.42;21.05;;;1.10;99.90;;;;;;5051768;28;20029;-86
2023/03/08 05:31:14;;;;;;;45.28;20.30;;;1.00;99.90;;;;;;5036578;28;20423;-86
2023/03/08 05:33:41;;;;;;;;;;;1.00;99.90;;;;;;5052257;28;20045;-86
2023/03/08 05:36:09;;;;;;;42.40;19.10;;;1.00;99.90;;;;;;5052083;28;19920;-86
2023/03/08 05:38:35;;;;;;;43.28;20.83;;;1.00;99.90;;;;;;5036226;28;20083;-86
2023/03/08 05:41:29;;;;;;;41.47;19.58;;;1.00;99.90;;;;;;5035805;28;20059;-86
2023/03/08 05:43:57;;;;;;;50.70;20.23;;;1.00;99.90;;;;;;5054478;28;20048;-85
2023/03/08 05:46:24;;;;;;;43.38;19.15;;;1.00;99.90;;;;;;5038387;28;20535;-86
2023/03/08 05:49:11;;;;;;;47.00;19.85;;;1.00;99.90;;;;;;5054885;28;20115;-86
2023/03/08 05:51:37;;;;;;;42.15;18.88;;;1.00;99.90;;;;;;5038172;28;20024;-86
2023/03/08 05:54:04;;;;;;;41.97;19.23;;;1.00;99.90;;;;;;5039167;28;20024;-86
2023/03/08 05:56:32;;;;;;;38.17;16.55;;;1.00;99.90;;;;;;5086811;28;20030;-90
2023/03/08 05:59:21;;;;;;;40.08;17.02;;;1.00;99.90;;;;;;5059188;28;20032;-90
2023/03/08 06:01:48;;;;;;;38.67;18.00;;;1.00;99.90;;;;;;5056189;28;20063;-90
2023/03/08 06:04:27;;;;;;;37.08;16.33;;;1.10;99.90;;;;;;5042018;28;20045;-90
2023/03/08 06:07:21;;;;;;;37.38;15.57;;;1.00;99.90;;;;;;5056378;28;20024;-90
2023/03/08 06:09:53;;;;;;;36.33;15.82;;;1.10;99.90;;;;;;5039294;28;20093;-90
2023/03/08 06:12:19;;;;;;;34.83;15.43;;;1.10;99.90;;;;;;5052204;28;20020;-89
2023/03/08 06:14:49;;;;;;;36.88;15.52;;;1.10;99.90;;;;;;5057795;28;20032;-89
2023/03/08 06:17:17;;;;;;;36.35;16.73;;;1.10;99.90;;;;;;5040515;28;20020;-89
2023/03/08 06:19:46;;;;;;;33.78;14.57;;;1.20;99.90;;;;;;5056899;28;20083;-90
2023/03/08 06:22:15;;;;;;;35.70;14.38;;;1.10;99.90;;;;;;5040121;28;20024;-89
2023/03/08 06:24:41;;;;;;;34.30;14.57;;;1.20;99.90;;;;;;5039562;28;20119;-89
2023/03/08 06:27:08;;;;;;;25.90;13.57;;;1.20;99.90;;;;;;5040479;28;20025;-88
2023/03/08 06:29:34;;;;;;;32.28;14.18;;;1.10;99.90;;;;;;5058252;28;20021;-89
2023/03/08 06:32:01;;;;;;;43.70;17.52;;;1.10;99.90;;;;;;5043677;28;20155;-89
2023/03/08 06:34:26;;;;;;;36.30;17.15;;;1.20;99.90;;;;;;5043765;28;20491;-89
2023/03/08 06:36:58;;;;;;;32.13;14.55;;;1.10;99.90;;;;;;5060611;28;20376;-89
2023/03/08 06:39:24;;;;;;;39.92;16.48;;;1.10;99.90;;;;;;5076814;28;20016;-89
2023/03/08 06:41:50;;;;;;;45.30;17.77;;;1.10;99.90;;;;;;5076944;28;20029;-89
2023/03/08 06:44:16;;;;;;;33.25;16.13;;;1.10;99.90;;;;;;5060350;28;20539;-90
2023/03/08 06:46:42;;;;;;;40.00;16.13;;;1.00;99.90;;;;;;5044094;28;20052;-89
2023/03/08 06:49:08;;;;;;;30.83;14.95;;;1.00;99.90;;;;;;5061037;28;20032;-89
2023/03/08 06:51:35;;;;;;;35.97;15.65;;;1.00;99.90;;;;;;5078050;28;20041;-90
2023/03/08 06:54:23;;;;;;;31.88;14.35;;;0.90;99.90;;;;;;5060614;28;20036;-89
2023/03/08 06:56:49;;;;;;;29.40;13.73;;;0.70;99.90;;;;;;5038362;28;20135;-89
2023/03/08 07:00:08;;;;;;;31.33;14.55;;;0.50;99.90;;;;;;5043619;28;20056;-88
2023/03/08 07:02:34;;;;;;;35.45;15.07;;;0.40;99.90;;;;;;5045119;28;20033;-90
2023/03/08 07:04:59;;;;;;;38.30;15.02;;;0.40;99.90;;;;;;5060607;28;20035;-89
2023/03/08 07:07:25;;;;;;;31.65;14.07;;;0.40;99.90;;;;;;5076855;28;20107;-89
2023/03/08 07:09:51;;;;;;;35.25;15.65;;;0.40;99.90;;;;;;5060019;28;20040;-89
2023/03/08 07:12:16;;;;;;;31.38;14.55;;;0.40;99.90;;;;;;5042827;28;20020;-89
2023/03/08 07:14:42;;;;;;;33.15;14.63;;;0.30;99.90;;;;;;5060209;28;20395;-89
2023/03/08 07:17:07;;;;;;;33.85;14.23;;;0.30;99.90;;;;;;5060161;28;20021;-89
2023/03/08 07:19:33;;;;;;;37.33;16.10;;;0.30;99.90;;;;;;5060407;28;20039;-89
2023/03/08 07:21:59;;;;;;;39.15;18.23;;;0.30;99.90;;;;;;5043422;28;20035;-88
2023/03/08 07:24:24;;;;;;;36.22;16.30;;;0.30;99.90;;;;;;5060107;28;20077;-89
2023/03/08 07:26:51;;;;;;;38.88;16.15;;;0.40;99.90;;;;;;5077276;28;20468;-89
2023/03/08 07:29:16;;;;;;;36.70;16.92;;;0.40;99.90;;;;;;5060145;28;20025;-89
2023/03/08 07:31:42;;;;;;;40.33;16.85;;;0.40;99.90;;;;;;5059428;28;20106;-89
2023/03/08 07:34:07;;;;;;;36.92;16.45;;;0.40;99.90;;;;;;5042630;28;20021;-89
2023/03/08 07:36:33;;;;;;;36.67;15.30;;;0.40;99.90;;;;;;5062151;28;20032;-89
2023/03/08 07:38:59;;;;;;;39.08;16.38;;;0.30;99.90;;;;;;5078580;28;20059;-89
2023/03/08 07:41:29;;;;;;;42.03;18.67;;;0.30;99.90;;;;;;5077885;28;20077;-88
2023/03/08 07:43:54;;;;;;;36.97;17.10;;;0.30;99.90;;;;;;5061512;28;20357;-89
2023/03/08 07:46:23;;;;;;;41.83;19.42;;;0.30;99.90;;;;;;5067953;28;20053;-90
2023/03/08 07:48:51;;;;;;;43.30;19.13;;;0.30;99.90;;;;;;5116184;28;20519;-88
2023/03/08 07:51:17;;;;;;;44.35;19.00;;;0.30;99.90;;;;;;5061792;28;20095;-88
2023/03/08 07:53:42;;;;;;;47.08;19.02;;;0.20;99.90;;;;;;5094676;28;20165;-88
2023/03/08 07:56:09;;;;;;;48.95;20.00;;;0.20;99.90;;;;;;5061225;28;20067;-89
2023/03/08 07:58:34;;;;;;;53.15;21.95;;;0.20;99.90;;;;;;5060858;28;20479;-89
2023/03/08 08:01:00;;;;;;;46.47;19.02;;;0.20;99.90;;;;;;5062266;28;20039;-89
2023/03/08 08:03:28;;;;;;;46.72;20.50;;;0.20;99.90;;;;;;5064851;28;20023;-89
2023/03/08 08:05:54;;;;;;;51.85;19.70;;;0.20;99.90;;;;;;5063899;28;20036;-90
2023/03/08 08:08:19;;;;;;;52.10;20.30;;;0.20;99.90;;;;;;5081927;28;20024;-89
2023/03/08 08:10:45;;;;;;;56.55;21.70;;;0.20;99.90;;;;;;5063734;28;20082;-89
2023/03/08 08:13:11;;;;;;;52.10;20.88;;;0.20;99.90;;;;;;5082126;28;20066;-90
2023/03/08 08:15:36;;;;;;;48.35;20.98;;;0.20;99.90;;;;;;5078049;28;20125;-89
2023/03/08 08:18:14;;;;;;;52.53;20.33;;;0.10;99.90;;;;;;5111693;28;20047;-90
2023/03/08 08:20:40;;;;;;;50.13;21.05;;;0.10;99.90;;;;;;5065226;28;20028;-89
2023/03/08 08:23:06;;;;;;;48.63;19.90;;;0.10;99.90;;;;;;5077785;28;20034;-90
2023/03/08 08:25:32;;;;;;;53.55;20.70;;;0.10;99.90;;;;;;5060454;28;20170;-89
2023/03/08 08:27:58;;;;;;;56.13;17.30;;;0.10;99.90;;;;;;5077278;28;20462;-90
2023/03/08 08:30:23;;;;;;;36.85;15.55;;;0.00;99.90;;;;;;5060534;28;20028;-90
2023/03/08 08:32:49;;;;;;;50.75;15.52;;;0.00;99.90;;;;;;5060846;28;20121;-88
2023/03/08 08:35:15;;;;;;;36.22;15.85;;;0.10;99.90;;;;;;5061597;28;20027;-90
2023/03/08 08:37:40;;;;;;;37.42;15.02;;;0.10;99.90;;;;;;5060634;28;20395;-89
2023/03/08 08:40:07;;;;;;;38.55;14.32;;;0.10;99.90;;;;;;5076837;28;20034;-90
2023/03/08 08:42:32;;;;;;;80.32;16.92;;;0.20;99.90;;;;;;5060111;28;20041;-89
2023/03/08 08:45:05;;;;;;;33.03;14.88;;;0.10;99.90;;;;;;5060325;28;20043;-89
2023/03/08 08:47:31;;;;;;;37.03;16.77;;;0.20;99.90;;;;;;5076616;28;20034;-90
2023/03/08 08:49:56;;;;;;;56.35;16.15;;;0.20;99.90;;;;;;5060119;28;20107;-89
2023/03/08 08:52:22;;;;;;;77.78;17.15;;;0.20;99.90;;;;;;5059387;28;20032;-89
2023/03/08 08:54:48;;;;;;;31.83;15.05;;;0.30;99.90;;;;;;5058833;28;20416;-89
2023/03/08 08:57:13;;;;;;;105.53;19.83;;;0.40;99.90;;;;;;5058413;28;20027;-88
2023/03/08 08:59:39;;;;;;;57.40;15.85;;;0.50;99.90;;;;;;5093878;28;20028;-89
2023/03/08 09:02:05;;;;;;;217.55;22.83;;;0.50;99.90;;;;;;5060054;28;20446;-89
2023/03/08 09:04:37;;;;;;;161.15;21.05;;;0.50;99.90;;;;;;5076252;28;20028;-88
2023/03/08 09:07:03;;;;;;;186.25;24.60;;;0.50;99.90;;;;;;5076181;28;20383;-90
2023/03/08 09:09:28;;;;;;;194.50;21.02;;;0.60;99.90;;;;;;5059179;28;20019;-89
2023/03/08 09:11:54;;;;;;;158.68;18.05;;;0.60;99.90;;;;;;5059005;28;20046;-90
2023/03/08 09:14:20;;;;;;;171.07;21.30;;;0.60;99.90;;;;;;5075936;28;20031;-89
2023/03/08 09:16:45;;;;;;;371.38;29.80;;;0.50;99.90;;;;;;5059146;28;20043;-89
2023/03/08 09:19:20;;;;;;;147.30;22.48;;;0.50;99.90;;;;;;5058932;28;20028;-89
2023/03/08 09:21:46;;;;;;;180.02;23.17;;;0.60;99.90;;;;;;5059458;28;20525;-89
2023/03/08 09:24:12;;;;;;;122.97;19.25;;;0.60;99.90;;;;;;5059063;28;20032;-88
2023/03/08 09:26:38;;;;;;;158.43;20.02;;;0.70;99.90;;;;;;5059578;28;20119;-90
2023/03/08 09:29:04;;;;;;;133.40;19.27;;;0.70;99.90;;;;;;5075706;28;20028;-90
2023/03/08 09:31:31;;;;;;;108.78;16.60;;;0.70;99.90;;;;;;5058869;28;20479;-88
2023/03/08 09:33:56;;;;;;;107.35;16.70;;;0.70;99.90;;;;;;5106781;28;20045;-89
2023/03/08 09:36:22;;;;;;;111.80;15.35;;;0.70;99.90;;;;;;5058653;28;20115;-88
2023/03/08 09:38:49;;;;;;;87.82;14.32;;;0.80;99.90;;;;;;5071274;28;20046;-88
2023/03/08 09:41:26;;;;;;;83.40;15.30;;;0.80;99.90;;;;;;5074932;28;20383;-89
2023/03/08 09:44:10;;;;;;;60.58;13.00;;;0.70;99.90;;;;;;5091865;28;20031;-88
2023/03/08 09:46:45;;;;;;;94.70;18.27;;;0.60;99.90;;;;;;5058530;28;20024;-89
2023/03/08 09:49:31;;;;;;;107.78;15.15;;;0.80;99.90;;;;;;5091495;28;20032;-88
2023/03/08 09:55:53;;;;;;;76.63;14.38;;;0.70;99.90;;;;;;5088329;28;20036;-89
2023/03/08 09:58:38;;;;;;;176.85;22.08;;;0.70;99.90;;;;;;5074077;28;20502;-88
2023/03/08 10:01:35;;;;;;;73.88;16.17;;;0.60;99.90;;;;;;5057751;28;20105;-88
2023/03/08 10:04:18;;;;;;;297.60;22.90;;;0.70;99.90;;;;;;5074912;28;20081;-89
2023/03/08 10:06:53;;;;;;;293.65;23.88;;;0.60;99.90;;;;;;5090910;28;20028;-89
2023/03/08 10:09:36;;;;;;;191.30;21.02;;;0.60;99.90;;;;;;5061975;28;20020;-88
2023/03/08 10:12:34;;;;;;;262.13;23.98;;;0.60;99.90;;;;;;5062170;28;20042;-89
2023/03/08 10:15:19;;;;;;;131.75;16.77;;;0.60;99.90;;;;;;5059242;28;20035;-90
2023/03/08 10:17:54;;;;;;;297.35;25.23;;;0.60;99.90;;;;;;5061847;28;20053;-90
2023/03/08 10:20:47;;;;;;;139.43;14.82;;;0.60;99.90;;;;;;5089520;28;20112;-89
2023/03/08 10:23:21;;;;;;;122.82;16.00;;;0.50;99.90;;;;;;5061741;28;20036;-90
2023/03/08 10:25:49;;;;;;;102.10;13.35;;;0.60;99.90;;;;;;5078531;28;20027;-90
2023/03/08 10:28:18;;;;;;;119.60;14.48;;;0.60;99.90;;;;;;5061376;28;20028;-89
2023/03/08 10:30:50;;;;;;;94.07;14.80;;;0.60;99.90;;;;;;5077588;28;20032;-89
2023/03/08 10:33:18;;;;;;;223.85;19.63;;;0.70;99.90;;;;;;5077857;28;20490;-90
2023/03/08 10:36:04;;;;;;;283.95;24.00;;;0.60;99.90;;;;;;5061622;28;20070;-89
2023/03/08 10:38:33;;;;;;;95.18;16.30;;;0.60;99.90;;;;;;5061487;28;20032;-89
2023/03/08 10:41:14;;;;;;;283.08;23.75;;;0.60;99.90;;;;;;5061106;28;20361;-90
2023/03/08 10:43:48;;;;;;;268.02;24.70;;;0.60;99.90;;;;;;5078358;28;20507;-90
2023/03/08 10:46:44;;;;;;;216.27;23.25;;;0.60;99.90;;;;;;5078319;28;20032;-90
2023/03/08 10:49:16;;;;;;;287.52;28.38;;;0.60;99.90;;;;;;5077989;28;20086;-90
2023/03/08 10:51:58;;;;;;;371.67;33.63;;;0.60;99.90;;;;;;5061666;28;20052;-91
2023/03/08 10:54:39;;;;;;;292.35;28.90;;;0.70;99.90;;;;;;5078589;28;20056;-90
2023/03/08 10:57:15;;;;;;;161.45;23.92;;;0.70;99.90;;;;;;5078225;28;20111;-91
2023/03/08 11:00:11;;;;;;;306.58;32.72;;;0.80;99.90;;;;;;5078426;28;20101;-90
2023/03/08 11:02:37;;;;;;;142.40;24.00;;;0.80;99.90;;;;;;5089923;28;20032;-91
2023/03/08 11:08:54;;;;;;;243.23;27.58;;;1.00;99.90;;;;;;5091310;28;20560;-90
2023/03/08 11:11:44;;;;;;;77.15;23.27;;;1.00;99.90;;;;;;5094493;28;20028;-90
2023/03/08 11:14:11;;;;;;;426.88;40.83;;;1.00;99.90;;;;;;5060704;28;20028;-90
2023/03/08 11:16:54;;;;;;;149.43;29.58;;;1.00;99.90;;;;;;5060064;28;20024;-89
2023/03/08 11:20:05;;;;;;;131.15;25.17;;;1.00;99.90;;;;;;5060272;28;20024;-90
2023/03/08 11:23:00;;;;;;;103.03;26.17;;;1.00;99.90;;;;;;5060888;28;20043;-90
2023/03/08 11:26:04;;;;;;;105.10;23.67;;;1.10;99.90;;;;;;5060351;28;20281;-90
2023/03/08 11:28:57;;;;;;;130.80;29.00;;;1.10;99.90;;;;;;5076759;28;20027;-90
2023/03/08 11:31:46;;;;;;;376.27;39.20;;;1.20;99.90;;;;;;5061397;28;20059;-90
2023/03/08 11:34:42;;;;;;;299.42;40.67;;;1.20;99.90;;;;;;5109834;28;20058;-90
2023/03/08 11:37:19;;;;;;;501.70;42.10;;;1.20;99.90;;;;;;5060570;28;20028;-89
2023/03/08 11:39:48;;;;;;;212.88;29.13;;;1.20;99.90;;;;;;5060250;28;20448;-90
2023/03/08 11:42:44;;;;;;;196.88;32.42;;;1.20;99.90;;;;;;5060343;28;20016;-90
2023/03/08 11:45:12;;;;;;;200.32;28.23;;;1.30;99.90;;;;;;5060027;28;20158;-90
2023/03/08 11:47:47;;;;;;;341.20;37.53;;;1.50;99.90;;;;;;5076892;28;20028;-89
2023/03/08 11:50:23;;;;;;;213.52;31.35;;;1.60;99.90;;;;;;5092153;28;20384;-90
2023/03/08 11:53:30;;;;;;;300.70;35.22;;;1.60;99.90;;;;;;5060028;28;20028;-90
2023/03/08 11:56:07;;;;;;;93.13;27.90;;;1.70;99.90;;;;;;5071440;28;20040;-91
2023/03/08 11:58:35;;;;;;;246.48;32.60;;;1.80;99.90;;;;;;5069758;28;20036;-91
2023/03/08 12:01:24;;;;;;;70.45;24.40;;;2.00;99.90;;;;;;5059562;28;20509;-91
2023/03/08 12:03:53;;;;;;;60.28;26.58;;;2.00;99.90;;;;;;5077129;28;20032;-91
2023/03/08 12:06:25;;;;;;;79.88;25.35;;;2.10;99.90;;;;;;5060029;28;20028;-90
2023/03/08 12:09:14;;;;;;;66.95;24.13;;;2.10;99.90;;;;;;5060369;28;20036;-91
2023/03/08 12:12:48;;;;;;;47.28;22.60;;;2.20;99.90;;;;;;5071264;28;20055;-91
2023/03/08 12:15:33;;;;;;;49.15;22.52;;;2.20;99.90;;;;;;4996995;28;20030;-91
2023/03/08 12:18:40;;;;;;;48.63;22.05;;;2.30;99.90;;;;;;4993467;28;20026;-92
2023/03/08 12:21:36;;;;;;;45.70;21.77;;;2.40;99.90;;;;;;4958565;28;20142;-92
2023/03/08 12:24:17;;;;;;;46.97;22.25;;;2.50;99.90;;;;;;4980589;28;20056;-91
2023/03/08 12:26:49;;;;;;;54.03;21.25;;;2.60;99.90;;;;;;5040085;28;20067;-91
2023/03/08 12:33:13;;;;;;;45.42;19.48;;;2.70;99.90;;;;;;5090369;28;20584;-92
2023/03/08 12:35:57;;;;;;;46.13;20.40;;;2.80;99.90;;;;;;5067664;28;20368;-91
2023/03/08 12:38:36;;;;;;;39.22;19.10;;;2.90;99.90;;;;;;5060651;28;20034;-92
2023/03/08 12:41:05;;;;;;;46.00;21.73;;;2.90;99.90;;;;;;5060440;28;20082;-91
2023/03/08 12:43:33;;;;;;;50.75;21.88;;;3.00;99.90;;;;;;5060550;28;20035;-92
2023/03/08 12:45:59;;;;;;;55.47;23.42;;;3.10;99.90;;;;;;5094321;28;20455;-90
2023/03/08 12:48:36;;;;;;;62.45;25.25;;;3.10;99.90;;;;;;5060630;28;20112;-91
2023/03/08 12:51:11;;;;;;;47.58;23.13;;;3.20;99.90;;;;;;5060401;28;20032;-90
2023/03/08 12:53:42;;;;;;;49.72;22.92;;;3.20;99.90;;;;;;5053280;28;20032;-92
2023/03/08 12:56:08;;;;;;;;;;;3.20;99.90;;;;;;5060850;28;20035;-93
2023/03/08 12:58:58;;;;;;;53.35;22.38;;;3.20;99.90;;;;;;5064513;28;19904;-92
2023/03/08 13:01:40;;;;;;;41.40;18.83;;;3.30;99.90;;;;;;5054231;28;20032;-92
2023/03/08 13:04:33;;;;;;;48.50;21.00;;;3.40;99.90;;;;;;5060313;28;20455;-93
2023/03/08 13:07:04;;;;;;;45.13;20.88;;;3.50;99.90;;;;;;5061735;28;20089;-93
2023/03/08 13:09:45;;;;;;;48.30;20.52;;;3.50;99.90;;;;;;5060312;28;20031;-92
2023/03/08 13:12:14;;;;;;;48.05;20.85;;;3.60;99.90;;;;;;5059644;28;20608;-93